Time,TemperatureF,DewpointF,PressureIn,WindDirection,WindDirectionDegrees,WindSpeedMPH,WindSpeedGustMPH,Humidity,HourlyPrecipIn,Conditions,Clouds,dailyrainin,SoftwareType,DateUTC
2013-02-28 00:00:00,40.9,32.2,29.80,SSE,159,5.0,14.0,71,0.00,RA,,0.00,WeatherDisplay:10.37,2013-02-28 05:00:00,
2013-02-28 01:00:00,39.3,30.4,29.79,SSE,152,0.0,13.0,70,0.00,OVC,,0.00,WeatherDisplay:10.37,2013-02-28 06:00:00,
2013-02-28 02:00:00,38.5,29.6,29.78,North,4,0.0,0.0,70,0.00,OVC,,0.00,WeatherDisplay:10.37,2013-02-28 07:00:00,
2013-02-28 03:00:00,37.9,29.0,29.77,North,2,0.0,0.0,70,0.00,OVC,,0.00,WeatherDisplay:10.37,2013-02-28 08:00:00,
2013-02-28 04:00:00,37.3,28.4,29.78,North,2,0.0,0.0,70,0.00,OVC,,0.00,WeatherDisplay:10.37,2013-02-28 09:00:00,
2013-02-28 05:00:00,36.4,27.5,29.77,North,3,0.0,0.0,70,0.00,OVC,,0.00,WeatherDisplay:10.37,2013-02-28 10:00:00,
2013-02-28 06:00:00,35.5,26.6,29.77,North,3,0.0,0.0,70,0.00,OVC,,0.00,WeatherDisplay:10.37,2013-02-28 11:00:00,
2013-02-28 07:00:00,35.0,26.2,29.77,North,1,0.0,0.0,70,0.00,OVC,,0.00,WeatherDisplay:10.37,2013-02-28 12:00:00,
2013-02-28 08:00:00,34.6,25.8,29.78,North,3,0.0,0.0,70,0.00,OVC,,0.00,WeatherDisplay:10.37,2013-02-28 13:00:00,
2013-02-28 09:00:00,34.2,25.4,29.81,North,3,0.0,0.0,70,0.00,OVC,,0.00,WeatherDisplay:10.37,2013-02-28 14:00:00,
2013-02-28 10:00:00,34.2,25.5,29.81,North,1,0.0,0.0,70,0.00,OVC,,0.00,WeatherDisplay:10.37,2013-02-28 15:00:00,
2013-02-28 11:00:00,34.7,25.9,29.81,North,3,0.0,0.0,70,0.00,OVC,,0.00,WeatherDisplay:10.37,2013-02-28 16:00:00,
2013-02-28 12:00:00,35.3,26.5,29.83,North,2,0.0,0.0,70,0.00,OVC,,0.00,WeatherDisplay:10.37,2013-02-28 17:00:00,
2013-02-28 13:00:00,35.9,27.1,29.83,North,3,0.0,0.0,70,0.00,OVC,,0.00,WeatherDisplay:10.37,2013-02-28 18:00:00,
2013-02-28 14:00:00,36.5,27.7,29.83,North,2,0.0,0.0,70,0.00,OVC,,0.00,WeatherDisplay:10.37,2013-02-28 19:00:00,
2013-02-28 15:00:00,35.9,27.0,29.84,North,3,0.0,0.0,70,0.00,OVC,,0.00,WeatherDisplay:10.37,2013-02-28 20:00:00,
2013-02-28 16:00:00,35.7,26.9,29.86,North,3,0.0,0.0,70,0.00,OVC,,0.00,WeatherDisplay:10.37,2013-02-28 21:00:00,
2013-02-28 17:00:00,35.4,26.6,29.88,North,3,0.0,0.0,70,0.00,OVC,,0.00,WeatherDisplay:10.37,2013-02-28 22:00:00,
2013-02-28 18:00:00,34.8,26.0,29.90,North,1,0.0,0.0,70,0.00,OVC,,0.00,WeatherDisplay:10.37,2013-02-28 23:00:00,
2013-02-28 19:00:00,34.2,25.5,29.91,North,3,0.0,0.0,70,0.00,OVC,,0.00,WeatherDisplay:10.37,2013-03-01 00:00:00,
2013-02-28 20:00:00,33.9,25.1,29.92,North,3,0.0,0.0,70,0.00,OVC,,0.00,WeatherDisplay:10.37,2013-03-01 01:00:00,
2013-02-28 21:00:00,33.7,24.9,29.92,North,1,0.0,0.0,70,0.00,OVC,,0.00,WeatherDisplay:10.37,2013-03-01 02:00:00,
2013-02-28 22:00:00,33.5,24.8,29.92,North,2,0.0,0.0,70,0.00,OVC,,0.00,WeatherDisplay:10.37,2013-03-01 03:00:00,
2013-02-28 23:00:00,33.5,24.7,29.92,North,2,0.0,0.0,70,0.00,OVC,,0.00,WeatherDisplay:10.37,2013-03-01 04:00:00,